createdAt,value
2023-01-12T00:00:17.557Z,9.65
2023-01-12T00:01:17.311Z,9.56
2023-01-12T00:02:17.593Z,9.56
2023-01-12T00:03:17.344Z,9.58
2023-01-12T00:04:17.783Z,9.56
2023-01-12T00:05:17.377Z,9.56
2023-01-12T00:06:17.383Z,9.56
2023-01-12T00:07:17.457Z,9.55
2023-01-12T00:08:17.413Z,9.56
2023-01-12T00:09:17.444Z,9.56
2023-01-12T00:10:17.441Z,9.51
2023-01-12T00:11:17.506Z,9.51
2023-01-12T00:12:17.284Z,9.55
2023-01-12T00:13:17.511Z,9.62
2023-01-12T00:14:17.535Z,9.54
2023-01-12T00:15:17.536Z,9.61
2023-01-12T00:16:17.723Z,9.51
2023-01-12T00:17:17.562Z,9.55
2023-01-12T00:18:17.793Z,9.58
2023-01-12T00:19:17.885Z,9.58
2023-01-12T00:20:17.344Z,9.54
2023-01-12T00:21:17.839Z,9.54
2023-01-12T00:22:17.522Z,9.62
2023-01-12T00:23:17.529Z,9.61
2023-01-12T00:24:17.837Z,9.56
2023-01-12T00:25:17.590Z,9.58
2023-01-12T00:26:17.699Z,9.5
2023-01-12T00:27:17.829Z,9.61
2023-01-12T00:28:17.848Z,9.65
2023-01-12T00:29:17.833Z,9.54
2023-01-12T00:30:17.288Z,9.56
2023-01-12T00:31:17.644Z,9.58
2023-01-12T00:32:17.277Z,9.54
2023-01-12T00:33:17.789Z,9.55
2023-01-12T00:34:17.857Z,9.58
2023-01-12T00:35:17.582Z,9.55
2023-01-12T00:36:17.855Z,9.58
2023-01-12T00:37:17.874Z,9.58
2023-01-12T00:38:17.884Z,9.56
2023-01-12T00:39:17.664Z,9.61
2023-01-12T00:40:17.896Z,9.56
2023-01-12T00:41:17.924Z,9.54
2023-01-12T00:42:17.677Z,9.54
2023-01-12T00:43:18.001Z,9.61
2023-01-12T00:44:18.033Z,9.55
2023-01-12T00:45:17.716Z,9.55
2023-01-12T00:46:17.956Z,9.56
2023-01-12T00:47:18.017Z,9.54
2023-01-12T00:48:18.054Z,9.59
2023-01-12T00:49:18.047Z,9.5
2023-01-12T00:50:20.962Z,9.55
2023-01-12T00:51:17.807Z,9.58
2023-01-12T00:52:33.166Z,9.58
2023-01-12T00:53:18.104Z,9.51
2023-01-12T00:54:17.850Z,9.55
2023-01-12T00:55:18.151Z,9.54
2023-01-12T00:56:18.162Z,9.58
2023-01-12T00:57:18.165Z,9.54
2023-01-12T00:58:18.180Z,9.54
2023-01-12T00:59:17.961Z,9.54
2023-01-12T01:00:18.259Z,9.58
2023-01-12T01:01:18.359Z,9.55
2023-01-12T01:02:18.757Z,9.55
2023-01-12T01:03:17.992Z,9.58
2023-01-12T01:04:18.738Z,9.55
2023-01-12T01:05:18.295Z,9.51
2023-01-12T01:06:18.101Z,9.61
2023-01-12T01:07:18.449Z,9.55
2023-01-12T01:08:18.323Z,9.55
2023-01-12T01:09:18.098Z,9.55
2023-01-12T01:10:18.368Z,9.56
2023-01-12T01:11:18.375Z,9.58
2023-01-12T01:12:18.149Z,9.56
2023-01-12T01:13:18.148Z,9.58
2023-01-12T01:14:18.162Z,9.48
2023-01-12T01:15:18.480Z,9.59
2023-01-12T01:16:18.344Z,9.59
2023-01-12T01:17:18.259Z,9.51
2023-01-12T01:18:18.493Z,9.65
2023-01-12T01:19:18.502Z,9.56
2023-01-12T01:20:18.498Z,9.55
2023-01-12T01:21:18.554Z,9.55
2023-01-12T01:22:18.324Z,9.54
2023-01-12T01:23:18.578Z,9.55
2023-01-12T01:24:18.587Z,9.59
2023-01-12T01:25:18.593Z,9.55
2023-01-12T01:26:18.612Z,9.5
2023-01-12T01:27:18.644Z,9.51
2023-01-12T01:28:18.119Z,9.54
2023-01-12T01:29:18.683Z,9.54
2023-01-12T01:30:18.663Z,9.64
2023-01-12T01:31:18.841Z,9.58
2023-01-12T01:32:18.748Z,9.54
2023-01-12T01:33:18.451Z,9.64
2023-01-12T01:34:18.734Z,9.55
2023-01-12T01:35:18.746Z,9.55
2023-01-12T01:36:19.334Z,9.55
2023-01-12T01:37:19.316Z,9.62
2023-01-12T01:38:18.746Z,9.56
2023-01-12T01:39:18.811Z,9.58
2023-01-12T01:40:18.567Z,9.56
2023-01-12T01:41:18.594Z,9.61
2023-01-12T01:42:18.598Z,9.55
2023-01-12T01:43:18.871Z,9.54
2023-01-12T01:44:18.632Z,9.59
2023-01-12T01:45:18.909Z,9.51
2023-01-12T01:46:19.431Z,9.56
2023-01-12T01:47:18.712Z,9.55
2023-01-12T01:48:18.985Z,9.56
2023-01-12T01:49:18.961Z,9.56
2023-01-12T01:50:18.757Z,9.62
2023-01-12T01:51:18.990Z,9.59
2023-01-12T01:52:18.764Z,9.56
2023-01-12T01:53:18.792Z,9.61
2023-01-12T01:54:19.062Z,9.55
2023-01-12T01:55:18.839Z,9.56
2023-01-12T01:56:19.073Z,9.56
2023-01-12T01:57:18.855Z,9.54
2023-01-12T01:58:19.110Z,9.56
2023-01-12T01:59:19.124Z,9.58
2023-01-12T02:00:18.878Z,9.56
2023-01-12T02:01:19.466Z,9.61
2023-01-12T02:02:19.300Z,9.5
2023-01-12T02:03:18.952Z,9.55
2023-01-12T02:04:19.415Z,9.56
2023-01-12T02:05:19.217Z,9.59
2023-01-12T02:06:19.223Z,9.51
2023-01-12T02:07:19.253Z,9.54
2023-01-12T02:08:18.746Z,9.54
2023-01-12T02:09:19.283Z,9.54
2023-01-12T02:10:19.075Z,9.61
2023-01-12T02:11:19.042Z,9.58
2023-01-12T02:12:19.064Z,9.56
2023-01-12T02:13:19.331Z,9.56
2023-01-12T02:14:19.374Z,9.58
2023-01-12T02:15:19.411Z,9.54
2023-01-12T02:16:19.456Z,9.58
2023-01-12T02:17:19.165Z,9.54
2023-01-12T02:18:19.410Z,9.58
2023-01-12T02:19:19.470Z,9.58
2023-01-12T02:20:19.478Z,9.56
2023-01-12T02:21:19.474Z,9.58
2023-01-12T02:22:19.492Z,9.56
2023-01-12T02:23:19.480Z,9.54
2023-01-12T02:24:19.504Z,9.56
2023-01-12T02:25:19.289Z,9.58
2023-01-12T02:26:19.552Z,9.56
2023-01-12T02:27:19.546Z,9.56
2023-01-12T02:28:19.323Z,9.58
2023-01-12T02:29:19.586Z,9.55
2023-01-12T02:30:19.355Z,9.51
2023-01-12T02:31:19.824Z,9.51
2023-01-12T02:32:19.646Z,9.51
2023-01-12T02:33:19.387Z,9.56
2023-01-12T02:34:19.660Z,9.56
2023-01-12T02:35:19.701Z,9.55
2023-01-12T02:36:19.729Z,9.56
2023-01-12T02:37:19.453Z,9.56
2023-01-12T02:38:19.738Z,9.58
2023-01-12T02:39:19.487Z,9.56
2023-01-12T02:40:19.753Z,9.54
2023-01-12T02:41:19.748Z,9.55
2023-01-12T02:42:19.825Z,9.55
2023-01-12T02:43:19.857Z,9.59
2023-01-12T02:44:19.551Z,9.58
2023-01-12T02:45:19.825Z,9.56
2023-01-12T02:46:19.966Z,9.58
2023-01-12T02:47:19.863Z,9.59
2023-01-12T02:48:19.872Z,9.58
2023-01-12T02:49:19.920Z,9.58
2023-01-12T02:50:19.662Z,9.58
2023-01-12T02:51:20.005Z,9.62
2023-01-12T02:52:19.992Z,9.56
2023-01-12T02:53:20.040Z,9.62
2023-01-12T02:54:19.701Z,9.56
2023-01-12T02:55:19.981Z,9.56
2023-01-12T02:56:20.044Z,9.54
2023-01-12T02:57:20.040Z,9.56
2023-01-12T02:58:20.103Z,9.66
2023-01-12T02:59:20.051Z,9.55
2023-01-12T03:00:20.062Z,9.54
2023-01-12T03:01:20.401Z,9.56
2023-01-12T03:02:20.088Z,9.56
2023-01-12T03:03:20.254Z,9.56
2023-01-12T03:04:20.492Z,9.54
2023-01-12T03:05:20.148Z,9.56
2023-01-12T03:06:20.145Z,9.56
2023-01-12T03:07:20.179Z,9.55
2023-01-12T03:08:20.038Z,9.56
2023-01-12T03:09:20.235Z,9.56
2023-01-12T03:10:19.957Z,9.54
2023-01-12T03:11:20.228Z,9.58
2023-01-12T03:12:20.275Z,9.56
2023-01-12T03:13:20.257Z,9.55
2023-01-12T03:14:20.290Z,9.58
2023-01-12T03:15:20.308Z,9.58
2023-01-12T03:16:20.542Z,9.56
2023-01-12T03:17:20.327Z,9.51
2023-01-12T03:18:20.091Z,9.56
2023-01-12T03:19:20.359Z,9.58
2023-01-12T03:20:19.879Z,9.56
2023-01-12T03:21:20.402Z,9.56
2023-01-12T03:22:20.136Z,9.59
2023-01-12T03:23:20.430Z,9.64
2023-01-12T03:24:20.463Z,9.55
2023-01-12T03:25:20.449Z,9.56
2023-01-12T03:26:20.465Z,9.56
2023-01-12T03:27:20.488Z,9.54
2023-01-12T03:28:20.484Z,9.54
2023-01-12T03:29:20.501Z,9.64
2023-01-12T03:30:20.575Z,9.62
2023-01-12T03:31:20.641Z,9.59
2023-01-12T03:32:20.568Z,9.56
2023-01-12T03:33:20.565Z,9.55
2023-01-12T03:34:20.326Z,9.55
2023-01-12T03:35:20.619Z,9.56
2023-01-12T03:36:20.353Z,9.56
2023-01-12T03:37:20.632Z,9.58
2023-01-12T03:38:20.395Z,9.54
2023-01-12T03:39:20.696Z,9.55
2023-01-12T03:40:20.727Z,9.58
2023-01-12T03:41:20.694Z,9.55
2023-01-12T03:42:20.452Z,9.58
2023-01-12T03:43:20.766Z,9.59
2023-01-12T03:44:20.482Z,9.56
2023-01-12T03:45:20.530Z,9.48
2023-01-12T03:46:20.801Z,9.58
2023-01-12T03:47:20.845Z,9.58
2023-01-12T03:48:20.532Z,9.51
2023-01-12T03:49:20.574Z,9.62
2023-01-12T03:50:20.568Z,9.59
2023-01-12T03:51:20.591Z,9.55
2023-01-12T03:52:20.846Z,9.58
2023-01-12T03:53:20.875Z,9.58
2023-01-12T03:54:20.665Z,9.61
2023-01-12T03:55:20.673Z,9.54
2023-01-12T03:56:20.944Z,9.54
2023-01-12T03:57:20.944Z,9.51
2023-01-12T03:58:20.950Z,9.56
2023-01-12T03:59:20.963Z,9.58
2023-01-12T04:00:21.005Z,9.55
2023-01-12T04:01:20.833Z,9.58
2023-01-12T04:02:20.799Z,9.54
2023-01-12T04:03:21.230Z,9.56
2023-01-12T04:04:21.093Z,9.56
2023-01-12T04:05:21.062Z,9.55
2023-01-12T04:06:20.819Z,9.55
2023-01-12T04:07:21.063Z,9.5
2023-01-12T04:08:20.861Z,9.55
2023-01-12T04:09:20.871Z,9.51
2023-01-12T04:10:20.890Z,9.54
2023-01-12T04:11:21.179Z,9.56
2023-01-12T04:12:20.924Z,9.61
2023-01-12T04:13:21.176Z,9.56
2023-01-12T04:14:21.203Z,9.55
2023-01-12T04:15:21.222Z,9.62
2023-01-12T04:16:21.433Z,9.54
2023-01-12T04:17:21.260Z,9.54
2023-01-12T04:18:21.285Z,9.55
2023-01-12T04:19:21.015Z,9.61
2023-01-12T04:20:21.836Z,9.58
2023-01-12T04:21:21.057Z,9.51
2023-01-12T04:22:21.624Z,9.55
2023-01-12T04:23:21.337Z,9.54
2023-01-12T04:24:21.417Z,9.55
2023-01-12T04:25:21.107Z,9.58
2023-01-12T04:26:21.418Z,9.59
2023-01-12T04:27:21.191Z,9.62
2023-01-12T04:28:21.465Z,9.55
2023-01-12T04:29:20.906Z,9.56
2023-01-12T04:30:21.454Z,9.59
2023-01-12T04:31:21.391Z,9.61
2023-01-12T04:32:21.511Z,9.61
2023-01-12T04:33:21.240Z,9.54
2023-01-12T04:34:21.293Z,9.56
2023-01-12T04:35:22.131Z,9.55
2023-01-12T04:36:21.514Z,9.51
2023-01-12T04:37:21.599Z,9.61
2023-01-12T04:38:21.578Z,9.56
2023-01-12T04:39:21.593Z,9.61
2023-01-12T04:40:21.365Z,9.54
2023-01-12T04:41:21.628Z,9.58
2023-01-12T04:42:21.364Z,9.58
2023-01-12T04:43:21.414Z,9.56
2023-01-12T04:44:21.742Z,9.54
2023-01-12T04:45:21.679Z,9.61
2023-01-12T04:46:21.595Z,9.55
2023-01-12T04:47:21.691Z,9.54
2023-01-12T04:48:22.992Z,9.51
2023-01-12T04:49:21.772Z,9.55
2023-01-12T04:50:21.841Z,9.58
2023-01-12T04:51:21.763Z,9.55
2023-01-12T04:52:21.807Z,9.55
2023-01-12T04:53:21.975Z,9.56
2023-01-12T04:54:21.815Z,9.56
2023-01-12T04:55:21.834Z,9.56
2023-01-12T04:56:21.583Z,9.54
2023-01-12T04:57:21.908Z,9.56
2023-01-12T04:58:21.601Z,9.56
2023-01-12T04:59:21.940Z,9.56
2023-01-12T05:00:21.946Z,9.56
2023-01-12T05:01:22.440Z,9.56
2023-01-12T05:02:21.940Z,9.56
2023-01-12T05:03:21.955Z,9.56
2023-01-12T05:04:21.971Z,9.56
2023-01-12T05:05:21.741Z,9.55
2023-01-12T05:06:22.019Z,9.54
2023-01-12T05:07:22.016Z,9.54
2023-01-12T05:08:21.773Z,9.58
2023-01-12T05:09:24.768Z,9.56
2023-01-12T05:10:21.821Z,9.58
2023-01-12T05:11:22.088Z,9.54
2023-01-12T05:12:22.093Z,9.55
2023-01-12T05:13:22.093Z,9.59
2023-01-12T05:14:21.848Z,9.58
2023-01-12T05:15:22.167Z,9.58
2023-01-12T05:16:22.539Z,9.62
2023-01-12T05:17:21.908Z,9.61
2023-01-12T05:18:21.935Z,9.55
2023-01-12T05:19:22.228Z,9.61
2023-01-12T05:20:22.203Z,9.62
2023-01-12T05:21:22.264Z,9.58
2023-01-12T05:22:22.287Z,9.54
2023-01-12T05:23:22.266Z,9.56
2023-01-12T05:24:22.012Z,9.54
2023-01-12T05:25:22.281Z,9.56
2023-01-12T05:26:22.317Z,9.58
2023-01-12T05:27:21.795Z,9.56
2023-01-12T05:28:22.083Z,9.58
2023-01-12T05:29:22.091Z,9.62
2023-01-12T05:30:22.372Z,9.61
2023-01-12T05:31:22.288Z,9.59
2023-01-12T05:32:22.164Z,9.56
2023-01-12T05:33:22.415Z,9.5
2023-01-12T05:34:22.449Z,9.56
2023-01-12T05:35:22.481Z,9.59
2023-01-12T05:36:23.537Z,9.56
2023-01-12T05:37:22.493Z,9.56
2023-01-12T05:38:22.509Z,9.5
2023-01-12T05:39:22.507Z,9.54
2023-01-12T05:40:22.517Z,9.58
2023-01-12T05:41:22.533Z,9.48
2023-01-12T05:42:22.576Z,9.56
2023-01-12T05:43:22.595Z,9.54
2023-01-12T05:44:22.584Z,9.61
2023-01-12T05:45:22.592Z,9.58
2023-01-12T05:46:22.504Z,9.5
2023-01-12T05:47:22.636Z,9.62
2023-01-12T05:48:22.400Z,9.51
2023-01-12T05:49:22.689Z,9.54
2023-01-12T05:50:22.664Z,9.54
2023-01-12T05:51:22.709Z,9.54
2023-01-12T05:52:22.715Z,9.54
2023-01-12T05:53:22.697Z,9.56
2023-01-12T05:54:22.754Z,9.58
2023-01-12T05:55:22.738Z,9.56
2023-01-12T05:56:22.768Z,9.61
2023-01-12T05:57:22.794Z,9.54
2023-01-12T05:58:22.530Z,9.64
2023-01-12T05:59:22.550Z,9.55
2023-01-12T06:00:22.806Z,9.51
2023-01-12T06:01:23.102Z,9.59
2023-01-12T06:02:22.668Z,9.54
2023-01-12T06:03:23.467Z,9.56
2023-01-12T06:04:23.548Z,9.66
2023-01-12T06:05:22.637Z,9.65
2023-01-12T06:06:22.905Z,9.58
2023-01-12T06:07:22.972Z,9.58
2023-01-12T06:08:22.939Z,9.56
2023-01-12T06:09:22.969Z,9.56
2023-01-12T06:10:23.025Z,9.58
2023-01-12T06:11:22.990Z,9.5
2023-01-12T06:12:22.748Z,9.58
2023-01-12T06:13:23.153Z,9.54
2023-01-12T06:14:23.033Z,9.56
2023-01-12T06:15:23.056Z,9.51
2023-01-12T06:16:23.285Z,9.56
2023-01-12T06:17:22.818Z,9.59
2023-01-12T06:18:23.089Z,9.56
2023-01-12T06:19:23.139Z,9.58
2023-01-12T06:20:23.186Z,9.56
2023-01-12T06:21:22.879Z,9.58
2023-01-12T06:22:23.154Z,9.56
2023-01-12T06:23:37.281Z,9.54
2023-01-12T06:24:23.201Z,9.61
2023-01-12T06:25:23.197Z,9.56
2023-01-12T06:26:23.269Z,9.55
2023-01-12T06:27:23.339Z,9.59
2023-01-12T06:28:23.024Z,9.56
2023-01-12T06:29:23.259Z,9.51
2023-01-12T06:30:23.293Z,9.58
2023-01-12T06:31:23.346Z,9.55
2023-01-12T06:32:23.324Z,9.51
2023-01-12T06:33:23.085Z,9.54
2023-01-12T06:34:23.376Z,9.56
2023-01-12T06:35:24.769Z,9.62
2023-01-12T06:36:23.158Z,9.54
2023-01-12T06:37:23.401Z,9.59
2023-01-12T06:38:24.019Z,9.56
2023-01-12T06:39:23.181Z,9.54
2023-01-12T06:40:22.909Z,9.54
2023-01-12T06:41:23.194Z,9.56
2023-01-12T06:42:23.224Z,9.54
2023-01-12T06:43:23.481Z,9.58
2023-01-12T06:44:23.513Z,9.5
2023-01-12T06:45:23.507Z,9.56
2023-01-12T06:46:23.713Z,9.59
2023-01-12T06:47:23.540Z,9.56
2023-01-12T06:48:23.560Z,9.56
2023-01-12T06:49:23.586Z,9.54
2023-01-12T06:50:23.079Z,9.58
2023-01-12T06:51:23.634Z,9.58
2023-01-12T06:52:23.642Z,9.58
2023-01-12T06:53:23.634Z,9.54
2023-01-12T06:54:23.963Z,9.58
2023-01-12T06:55:23.669Z,9.58
2023-01-12T06:56:23.702Z,9.58
2023-01-12T06:57:23.432Z,9.58
2023-01-12T06:58:23.742Z,9.59
2023-01-12T06:59:23.750Z,9.61
2023-01-12T07:00:23.762Z,9.54
2023-01-12T07:01:24.451Z,9.54
2023-01-12T07:02:23.820Z,9.54
2023-01-12T07:03:23.805Z,9.55
2023-01-12T07:04:24.366Z,9.54
2023-01-12T07:05:23.821Z,9.54
2023-01-12T07:06:23.581Z,9.56
2023-01-12T07:07:23.613Z,9.58
2023-01-12T07:08:23.761Z,9.62
2023-01-12T07:09:23.880Z,9.58
2023-01-12T07:10:23.901Z,9.54
2023-01-12T07:11:23.905Z,9.54
2023-01-12T07:12:23.938Z,9.54
2023-01-12T07:13:23.683Z,9.58
2023-01-12T07:14:24.000Z,9.56
2023-01-12T07:15:24.004Z,9.56
2023-01-12T07:16:24.505Z,9.59
2023-01-12T07:17:23.999Z,9.56
2023-01-12T07:18:24.008Z,9.51
2023-01-12T07:19:24.060Z,9.65
2023-01-12T07:20:24.047Z,9.54
2023-01-12T07:21:23.549Z,9.66
2023-01-12T07:22:24.082Z,9.56
2023-01-12T07:23:24.176Z,9.58
2023-01-12T07:24:23.912Z,9.5
2023-01-12T07:25:24.170Z,9.62
2023-01-12T07:26:24.178Z,9.54
2023-01-12T07:27:24.148Z,9.5
2023-01-12T07:28:23.926Z,9.56
2023-01-12T07:29:24.403Z,9.56
2023-01-12T07:30:24.467Z,9.58
2023-01-12T07:31:24.417Z,9.58
2023-01-12T07:32:24.429Z,9.58
2023-01-12T07:33:23.984Z,9.55
2023-01-12T07:34:24.442Z,9.55
2023-01-12T07:35:24.028Z,9.61
2023-01-12T07:36:24.390Z,9.56
2023-01-12T07:37:24.442Z,9.56
2023-01-12T07:38:24.458Z,9.56
2023-01-12T07:39:24.467Z,9.56
2023-01-12T07:40:24.375Z,9.5
2023-01-12T07:41:24.454Z,9.54
2023-01-12T07:42:24.433Z,9.58
2023-01-12T07:43:24.152Z,9.54
2023-01-12T07:44:24.413Z,9.56
2023-01-12T07:45:24.411Z,9.58
2023-01-12T07:46:24.635Z,9.56
2023-01-12T07:47:24.467Z,9.54
2023-01-12T07:48:24.488Z,9.54
2023-01-12T07:49:24.480Z,9.61
2023-01-12T07:50:24.686Z,9.62
2023-01-12T07:51:24.487Z,9.56
2023-01-12T07:52:24.418Z,9.54
2023-01-12T07:53:24.431Z,9.56
2023-01-12T07:54:24.508Z,9.54
2023-01-12T07:55:24.480Z,9.56
2023-01-12T07:56:24.653Z,9.56
2023-01-12T07:57:24.428Z,9.51
2023-01-12T07:58:24.622Z,9.56
2023-01-12T07:59:24.639Z,9.56
2023-01-12T08:00:24.648Z,9.54
2023-01-12T08:01:24.965Z,9.54
2023-01-12T08:02:24.965Z,9.54
2023-01-12T08:03:24.704Z,9.59
2023-01-12T08:04:25.111Z,9.58
2023-01-12T08:05:24.849Z,9.56
2023-01-12T08:06:24.739Z,9.58
2023-01-12T08:07:24.778Z,9.61
2023-01-12T08:08:24.506Z,9.58
2023-01-12T08:09:24.782Z,9.54
2023-01-12T08:10:24.805Z,9.56
2023-01-12T08:11:24.850Z,9.58
2023-01-12T08:12:24.890Z,9.56
2023-01-12T08:13:24.866Z,9.56
2023-01-12T08:14:24.875Z,9.54
2023-01-12T08:15:24.628Z,9.64
2023-01-12T08:16:25.106Z,9.56
2023-01-12T08:17:24.705Z,9.54
2023-01-12T08:18:24.955Z,9.54
2023-01-12T08:19:24.705Z,9.56
2023-01-12T08:20:24.974Z,9.64
2023-01-12T08:21:24.983Z,9.59
2023-01-12T08:22:24.987Z,9.58
2023-01-12T08:23:25.016Z,9.54
2023-01-12T08:24:25.032Z,9.58
2023-01-12T08:25:24.796Z,9.59
2023-01-12T08:26:25.047Z,9.56
2023-01-12T08:27:25.120Z,9.55
2023-01-12T08:28:25.121Z,9.51
2023-01-12T08:29:25.093Z,9.56
2023-01-12T08:30:25.132Z,9.58
2023-01-12T08:31:25.298Z,9.5
2023-01-12T08:32:25.150Z,9.5
2023-01-12T08:33:25.208Z,9.59
2023-01-12T08:34:25.212Z,9.61
2023-01-12T08:35:25.224Z,9.51
2023-01-12T08:36:25.281Z,9.5
2023-01-12T08:37:25.596Z,9.56
2023-01-12T08:38:25.259Z,9.54
2023-01-12T08:39:24.989Z,9.55
2023-01-12T08:40:25.343Z,9.55
2023-01-12T08:41:25.304Z,9.54
2023-01-12T08:42:26.454Z,9.56
2023-01-12T08:43:25.351Z,9.61
2023-01-12T08:44:25.364Z,9.58
2023-01-12T08:45:25.363Z,9.59
2023-01-12T08:46:25.395Z,9.56
2023-01-12T08:47:25.363Z,9.54
2023-01-12T08:48:25.380Z,9.56
2023-01-12T08:49:27.021Z,9.54
2023-01-12T08:50:25.450Z,9.56
2023-01-12T08:51:25.422Z,9.54
2023-01-12T08:52:25.472Z,9.55
2023-01-12T08:53:25.513Z,9.56
2023-01-12T08:54:25.240Z,9.61
2023-01-12T08:55:25.236Z,9.66
2023-01-12T08:56:25.504Z,9.58
2023-01-12T08:57:25.556Z,9.58
2023-01-12T08:58:25.546Z,9.68
2023-01-12T08:59:25.372Z,9.55
2023-01-12T09:00:25.715Z,9.55
2023-01-12T09:01:26.052Z,9.55
2023-01-12T09:02:25.882Z,9.54
2023-01-12T09:03:25.352Z,9.66
2023-01-12T09:04:25.824Z,9.68
2023-01-12T09:05:25.645Z,9.62
2023-01-12T09:06:25.727Z,9.64
2023-01-12T09:07:25.734Z,9.65
2023-01-12T09:08:25.710Z,9.51
2023-01-12T09:09:25.713Z,9.65
2023-01-12T09:10:25.616Z,9.68
2023-01-12T09:11:25.491Z,9.65
2023-01-12T09:12:27.843Z,9.59
2023-01-12T09:13:25.784Z,9.66
2023-01-12T09:14:25.807Z,9.64
2023-01-12T09:15:25.843Z,9.66
2023-01-12T09:16:25.975Z,9.66
2023-01-12T09:17:25.842Z,9.61
2023-01-12T09:18:25.938Z,9.69
2023-01-12T09:19:25.666Z,9.72
2023-01-12T09:20:25.951Z,9.62
2023-01-12T09:21:25.884Z,9.74
2023-01-12T09:22:25.689Z,9.69
2023-01-12T09:23:25.979Z,9.68
2023-01-12T09:24:25.964Z,9.62
2023-01-12T09:25:25.951Z,9.66
2023-01-12T09:26:25.982Z,9.68
2023-01-12T09:27:26.014Z,9.66
2023-01-12T09:28:26.021Z,9.65
2023-01-12T09:29:25.502Z,9.69
2023-01-12T09:30:25.878Z,9.64
2023-01-12T09:31:26.295Z,9.73
2023-01-12T09:32:38.876Z,9.69
2023-01-12T09:33:28.813Z,9.68
2023-01-12T09:34:25.876Z,9.66
2023-01-12T09:35:25.869Z,9.73
2023-01-12T09:36:26.144Z,9.58
2023-01-12T09:37:26.141Z,9.68
2023-01-12T09:38:25.955Z,9.65
2023-01-12T09:39:33.743Z,9.74
2023-01-12T09:40:26.292Z,9.68
2023-01-12T09:41:25.970Z,9.72
2023-01-12T09:42:25.962Z,9.68
2023-01-12T09:43:26.225Z,9.68
2023-01-12T09:44:25.989Z,9.66
2023-01-12T09:45:26.336Z,9.66
2023-01-12T09:46:25.780Z,9.77
2023-01-12T09:47:26.344Z,9.73
2023-01-12T09:48:27.305Z,9.74
2023-01-12T09:49:26.328Z,9.68
2023-01-12T09:50:26.511Z,9.74
2023-01-12T09:51:26.370Z,9.72
2023-01-12T09:52:26.378Z,9.72
2023-01-12T09:53:26.140Z,9.72
2023-01-12T09:54:26.177Z,9.65
2023-01-12T09:55:26.174Z,9.69
2023-01-12T09:56:26.183Z,9.65
2023-01-12T09:57:33.868Z,9.68
2023-01-12T09:58:26.487Z,9.65
2023-01-12T09:59:26.531Z,9.72
2023-01-12T10:00:26.022Z,9.73
2023-01-12T10:01:34.526Z,9.68
2023-01-12T10:02:26.419Z,9.69
2023-01-12T10:03:26.929Z,9.69
2023-01-12T10:04:26.806Z,9.74
2023-01-12T10:05:41.336Z,9.68
2023-01-12T10:06:26.621Z,9.74
2023-01-12T10:07:26.614Z,9.73
2023-01-12T10:08:26.634Z,9.65
2023-01-12T10:09:26.670Z,9.74
2023-01-12T10:10:26.762Z,9.72
2023-01-12T10:11:26.412Z,9.74
2023-01-12T10:12:26.688Z,9.72
2023-01-12T10:13:26.700Z,9.68
2023-01-12T10:14:26.459Z,9.73
2023-01-12T10:15:26.480Z,9.68
2023-01-12T10:16:26.907Z,9.72
2023-01-12T10:17:26.773Z,9.69
2023-01-12T10:18:26.539Z,9.68
2023-01-12T10:19:27.176Z,9.69
2023-01-12T10:20:26.924Z,9.68
2023-01-12T10:21:26.828Z,9.68
2023-01-12T10:22:26.659Z,9.73
2023-01-12T10:23:26.945Z,9.74
2023-01-12T10:24:26.657Z,9.65
2023-01-12T10:25:26.878Z,9.68
2023-01-12T10:26:26.935Z,9.73
2023-01-12T10:27:26.658Z,9.65
2023-01-12T10:28:26.956Z,9.74
2023-01-12T10:29:27.139Z,9.72
2023-01-12T10:30:27.196Z,9.73
2023-01-12T10:31:27.326Z,9.73
2023-01-12T10:32:34.430Z,9.74
2023-01-12T10:33:27.232Z,9.72
2023-01-12T10:34:27.176Z,9.68
2023-01-12T10:35:26.993Z,9.62
2023-01-12T10:36:27.243Z,9.69
2023-01-12T10:37:27.222Z,9.72
2023-01-12T10:38:27.152Z,9.72
2023-01-12T10:39:26.862Z,9.69
2023-01-12T10:40:27.219Z,9.73
2023-01-12T10:41:26.611Z,9.64
2023-01-12T10:42:26.977Z,9.72
2023-01-12T10:43:27.187Z,9.72
2023-01-12T10:44:27.181Z,9.74
2023-01-12T10:45:27.216Z,9.72
2023-01-12T10:46:27.242Z,9.66
2023-01-12T10:47:26.973Z,9.77
2023-01-12T10:48:26.993Z,9.68
2023-01-12T10:49:27.254Z,9.66
2023-01-12T10:50:27.304Z,9.69
2023-01-12T10:51:27.306Z,9.69
2023-01-12T10:52:27.332Z,9.69
2023-01-12T10:53:27.308Z,9.77
2023-01-12T10:54:27.094Z,9.65
2023-01-12T10:55:27.082Z,9.73
2023-01-12T10:56:27.371Z,9.77
2023-01-12T10:57:27.412Z,9.69
2023-01-12T10:58:27.432Z,9.74
2023-01-12T10:59:27.389Z,9.77
2023-01-12T11:00:30.197Z,9.73
2023-01-12T11:01:27.798Z,9.76
2023-01-12T11:02:27.867Z,9.74
2023-01-12T11:03:27.462Z,9.76
2023-01-12T11:04:27.681Z,9.73
2023-01-12T11:05:27.492Z,9.72
2023-01-12T11:06:27.279Z,9.73
2023-01-12T11:07:27.593Z,9.73
2023-01-12T11:08:27.580Z,9.77
2023-01-12T11:09:27.586Z,9.8
2023-01-12T11:10:27.589Z,9.72
2023-01-12T11:11:27.595Z,9.87
2023-01-12T11:12:29.679Z,9.8
2023-01-12T11:13:27.634Z,9.73
2023-01-12T11:14:29.316Z,9.77
2023-01-12T11:15:27.656Z,9.8
2023-01-12T11:16:27.661Z,9.77
2023-01-12T11:17:27.679Z,9.69
2023-01-12T11:18:27.692Z,9.69
2023-01-12T11:19:27.715Z,9.73
2023-01-12T11:20:27.718Z,9.76
2023-01-12T11:21:27.794Z,9.69
2023-01-12T11:22:27.772Z,9.74
2023-01-12T11:23:27.805Z,9.8
2023-01-12T11:24:27.821Z,9.8
2023-01-12T11:25:27.563Z,9.76
2023-01-12T11:26:27.849Z,9.77
2023-01-12T11:27:27.575Z,9.76
2023-01-12T11:28:27.885Z,9.8
2023-01-12T11:29:27.870Z,9.73
2023-01-12T11:30:27.805Z,9.77
2023-01-12T11:31:27.909Z,9.76
2023-01-12T11:32:27.917Z,9.79
2023-01-12T11:33:27.933Z,9.77
2023-01-12T11:34:28.011Z,9.76
2023-01-12T11:35:28.009Z,9.76
2023-01-12T11:36:28.035Z,9.8
2023-01-12T11:37:28.045Z,9.84
2023-01-12T11:38:28.032Z,9.8
2023-01-12T11:39:28.049Z,9.8
2023-01-12T11:40:28.103Z,9.74
2023-01-12T11:41:28.146Z,9.79
2023-01-12T11:42:28.086Z,9.76
2023-01-12T11:43:27.835Z,9.74
2023-01-12T11:44:28.149Z,9.73
2023-01-12T11:45:28.118Z,9.74
2023-01-12T11:46:28.080Z,9.76
2023-01-12T11:47:28.154Z,9.76
2023-01-12T11:48:28.165Z,9.74
2023-01-12T11:49:27.922Z,9.72
2023-01-12T11:50:28.218Z,9.79
2023-01-12T11:51:27.958Z,9.77
2023-01-12T11:52:28.223Z,9.84
2023-01-12T11:53:28.262Z,9.72
2023-01-12T11:54:28.034Z,9.74
2023-01-12T11:55:28.326Z,9.72
2023-01-12T11:56:28.315Z,9.74
2023-01-12T11:57:28.056Z,9.74
2023-01-12T11:58:28.351Z,9.79
2023-01-12T11:59:28.351Z,9.77
2023-01-12T12:00:28.365Z,9.89
2023-01-12T12:01:28.295Z,9.89
2023-01-12T12:02:28.680Z,9.89
2023-01-12T12:03:28.607Z,9.74
2023-01-12T12:04:28.501Z,9.84
2023-01-12T12:05:28.432Z,9.79
2023-01-12T12:06:28.451Z,9.74
2023-01-12T12:07:28.202Z,9.91
2023-01-12T12:08:28.474Z,9.87
2023-01-12T12:09:28.487Z,9.84
2023-01-12T12:10:28.716Z,9.91
2023-01-12T12:11:28.571Z,9.83
2023-01-12T12:12:28.572Z,9.89
2023-01-12T12:13:28.571Z,9.8
2023-01-12T12:14:28.585Z,9.91
2023-01-12T12:15:28.682Z,9.89
2023-01-12T12:16:28.615Z,9.86
2023-01-12T12:17:28.619Z,9.89
2023-01-12T12:18:28.408Z,9.77
2023-01-12T12:19:28.648Z,9.86
2023-01-12T12:20:28.659Z,9.87
2023-01-12T12:21:28.404Z,9.84
2023-01-12T12:22:28.687Z,9.86
2023-01-12T12:23:28.699Z,9.86
2023-01-12T12:24:28.446Z,9.83
2023-01-12T12:25:28.468Z,9.86
2023-01-12T12:26:28.499Z,9.84
2023-01-12T12:27:28.781Z,9.87
2023-01-12T12:28:28.547Z,9.94
2023-01-12T12:29:28.801Z,9.86
2023-01-12T12:30:28.562Z,9.82
2023-01-12T12:31:28.972Z,9.91
2023-01-12T12:32:28.835Z,9.84
2023-01-12T12:33:28.355Z,9.91
2023-01-12T12:34:28.632Z,9.91
2023-01-12T12:35:28.893Z,9.89
2023-01-12T12:36:28.926Z,9.84
2023-01-12T12:37:28.931Z,9.91
2023-01-12T12:38:28.938Z,9.86
2023-01-12T12:39:28.686Z,9.83
2023-01-12T12:40:28.967Z,9.91
2023-01-12T12:41:29.204Z,9.86
2023-01-12T12:42:29.078Z,9.92
2023-01-12T12:43:28.771Z,9.98
2023-01-12T12:44:29.072Z,9.92
2023-01-12T12:45:29.086Z,9.98
2023-01-12T12:46:29.313Z,9.92
2023-01-12T12:47:29.070Z,9.91
2023-01-12T12:48:28.820Z,9.89
2023-01-12T12:49:28.597Z,9.95
2023-01-12T12:50:29.157Z,9.99
2023-01-12T12:51:29.131Z,9.97
2023-01-12T12:52:28.875Z,9.87
2023-01-12T12:53:28.903Z,9.92
2023-01-12T12:54:29.177Z,9.97
2023-01-12T12:55:29.200Z,9.94
2023-01-12T12:56:29.243Z,10.01
2023-01-12T12:57:29.223Z,9.95
2023-01-12T12:58:28.996Z,9.95
2023-01-12T12:59:29.283Z,9.95
2023-01-12T13:00:29.347Z,10.01
2023-01-12T13:01:30.093Z,9.97
2023-01-12T13:02:29.467Z,9.99
2023-01-12T13:03:29.110Z,9.87
2023-01-12T13:04:29.637Z,9.95
2023-01-12T13:05:29.370Z,9.95
2023-01-12T13:06:29.191Z,9.95
2023-01-12T13:07:29.471Z,9.95
2023-01-12T13:08:29.395Z,9.97
2023-01-12T13:09:29.426Z,9.97
2023-01-12T13:10:30.088Z,10.01
2023-01-12T13:11:28.924Z,9.98
2023-01-12T13:12:29.556Z,9.99
2023-01-12T13:13:29.481Z,9.91
2023-01-12T13:14:29.484Z,10.01
2023-01-12T13:15:29.609Z,9.99
2023-01-12T13:16:29.283Z,9.98
2023-01-12T13:17:29.565Z,9.92
2023-01-12T13:18:29.036Z,10.02
2023-01-12T13:19:29.567Z,9.99